sensor_id;sensor_type;location;lat;lon;timestamp;pressure;altitude;pressure_sealevel;temperature;humidity
19624;BME280;9959;49.798;9.928;2023-04-10T00:00:34;100402.44;;;4.40;84.85
19624;BME280;9959;49.798;9.928;2023-04-10T00:03:03;100407.88;;;4.13;86.02
19624;BME280;9959;49.798;9.928;2023-04-10T00:05:31;100404.69;;;4.27;86.16
19624;BME280;9959;49.798;9.928;2023-04-10T00:07:58;100408.78;;;4.04;86.33
19624;BME280;9959;49.798;9.928;2023-04-10T00:10:25;100417.69;;;3.95;87.69
19624;BME280;9959;49.798;9.928;2023-04-10T00:12:54;100423.31;;;3.92;88.02
19624;BME280;9959;49.798;9.928;2023-04-10T00:15:22;100420.44;;;4.03;87.51
19624;BME280;9959;49.798;9.928;2023-04-10T00:17:49;100426.75;;;4.02;87.06
19624;BME280;9959;49.798;9.928;2023-04-10T00:20:21;100423.31;;;3.92;87.35
19624;BME280;9959;49.798;9.928;2023-04-10T00:22:48;100425.78;;;4.03;87.71
19624;BME280;9959;49.798;9.928;2023-04-10T00:25:16;100418.53;;;3.95;87.48
19624;BME280;9959;49.798;9.928;2023-04-10T00:27:43;100421.16;;;3.78;88.89
19624;BME280;9959;49.798;9.928;2023-04-10T00:30:10;100414.75;;;3.70;88.98
19624;BME280;9959;49.798;9.928;2023-04-10T00:32:37;100399.44;;;3.55;89.86
19624;BME280;9959;49.798;9.928;2023-04-10T00:35:05;100394.97;;;3.46;90.14
19624;BME280;9959;49.798;9.928;2023-04-10T00:37:32;100399.19;;;3.48;90.23
19624;BME280;9959;49.798;9.928;2023-04-10T00:39:59;100399.50;;;3.63;89.53
19624;BME280;9959;49.798;9.928;2023-04-10T00:42:26;100402.59;;;3.58;89.02
19624;BME280;9959;49.798;9.928;2023-04-10T00:44:54;100396.59;;;3.56;89.01
19624;BME280;9959;49.798;9.928;2023-04-10T00:47:21;100391.88;;;3.50;88.91
19624;BME280;9959;49.798;9.928;2023-04-10T00:49:49;100390.97;;;3.59;89.56
19624;BME280;9959;49.798;9.928;2023-04-10T00:52:16;100392.84;;;3.77;88.78
19624;BME280;9959;49.798;9.928;2023-04-10T00:54:43;100393.56;;;3.51;88.69
19624;BME280;9959;49.798;9.928;2023-04-10T00:57:10;100390.28;;;3.57;89.23
19624;BME280;9959;49.798;9.928;2023-04-10T00:59:37;100394.41;;;3.52;88.94
19624;BME280;9959;49.798;9.928;2023-04-10T01:02:04;100393.88;;;3.38;89.75
19624;BME280;9959;49.798;9.928;2023-04-10T01:04:32;100396.09;;;3.43;90.42
19624;BME280;9959;49.798;9.928;2023-04-10T01:07:16;100381.50;;;3.47;89.46
19624;BME280;9959;49.798;9.928;2023-04-10T01:09:58;100379.53;;;3.49;88.88
19624;BME280;9959;49.798;9.928;2023-04-10T01:15:17;100383.75;;;3.69;88.21
19624;BME280;9959;49.798;9.928;2023-04-10T01:20:25;100401.19;;;3.36;89.96
19624;BME280;9959;49.798;9.928;2023-04-10T01:25:58;100397.03;;;3.24;90.27
19624;BME280;9959;49.798;9.928;2023-04-10T01:28:56;100395.88;;;2.99;91.64
19624;BME280;9959;49.798;9.928;2023-04-10T01:34:04;100407.34;;;3.37;91.25
19624;BME280;9959;49.798;9.928;2023-04-10T01:36:37;100408.84;;;3.12;92.13
19624;BME280;9959;49.798;9.928;2023-04-10T01:39:09;100407.78;;;2.95;92.81
19624;BME280;9959;49.798;9.928;2023-04-10T01:41:40;100412.44;;;2.84;94.23
19624;BME280;9959;49.798;9.928;2023-04-10T01:44:07;100407.81;;;2.86;93.82
19624;BME280;9959;49.798;9.928;2023-04-10T01:46:37;100421.25;;;2.75;94.17
19624;BME280;9959;49.798;9.928;2023-04-10T01:49:05;100420.69;;;2.90;93.75
19624;BME280;9959;49.798;9.928;2023-04-10T01:51:33;100418.44;;;2.86;92.63
19624;BME280;9959;49.798;9.928;2023-04-10T01:54:01;100419.00;;;2.89;92.11
19624;BME280;9959;49.798;9.928;2023-04-10T01:56:32;100421.81;;;2.88;92.13
19624;BME280;9959;49.798;9.928;2023-04-10T01:58:59;100427.41;;;2.75;93.40
19624;BME280;9959;49.798;9.928;2023-04-10T02:01:26;100426.44;;;2.76;93.16
19624;BME280;9959;49.798;9.928;2023-04-10T02:03:57;100428.28;;;2.66;93.45
19624;BME280;9959;49.798;9.928;2023-04-10T02:06:50;100422.69;;;2.69;93.48
19624;BME280;9959;49.798;9.928;2023-04-10T02:09:26;100414.50;;;2.99;92.24
19624;BME280;9959;49.798;9.928;2023-04-10T02:12:01;100412.28;;;2.85;92.86
19624;BME280;9959;49.798;9.928;2023-04-10T02:14:31;100405.59;;;2.71;93.56
19624;BME280;9959;49.798;9.928;2023-04-10T02:17:00;100405.06;;;2.68;93.98
19624;BME280;9959;49.798;9.928;2023-04-10T02:19:30;100398.00;;;2.77;93.01
19624;BME280;9959;49.798;9.928;2023-04-10T02:21:57;100400.53;;;2.78;93.07
19624;BME280;9959;49.798;9.928;2023-04-10T02:24:24;100403.38;;;2.67;92.74
19624;BME280;9959;49.798;9.928;2023-04-10T02:26:52;100398.72;;;2.79;92.73
19624;BME280;9959;49.798;9.928;2023-04-10T02:29:19;100409.63;;;2.85;93.03
19624;BME280;9959;49.798;9.928;2023-04-10T02:31:46;100401.78;;;2.74;92.63
19624;BME280;9959;49.798;9.928;2023-04-10T02:34:13;100405.47;;;2.73;92.68
19624;BME280;9959;49.798;9.928;2023-04-10T02:36:40;100413.72;;;2.60;93.79
19624;BME280;9959;49.798;9.928;2023-04-10T02:39:07;100413.44;;;2.73;92.87
19624;BME280;9959;49.798;9.928;2023-04-10T02:41:34;100410.38;;;2.49;94.35
19624;BME280;9959;49.798;9.928;2023-04-10T02:44:00;100414.84;;;2.58;94.20
19624;BME280;9959;49.798;9.928;2023-04-10T02:46:28;100412.19;;;2.48;93.49
19624;BME280;9959;49.798;9.928;2023-04-10T02:48:55;100408.41;;;2.60;93.78
19624;BME280;9959;49.798;9.928;2023-04-10T02:51:21;100410.94;;;2.52;93.64
19624;BME280;9959;49.798;9.928;2023-04-10T02:53:48;100408.00;;;2.26;93.79
19624;BME280;9959;49.798;9.928;2023-04-10T02:56:15;100411.94;;;2.42;94.54
19624;BME280;9959;49.798;9.928;2023-04-10T02:58:42;100410.66;;;2.26;94.67
19624;BME280;9959;49.798;9.928;2023-04-10T03:01:12;100409.28;;;2.13;95.46
19624;BME280;9959;49.798;9.928;2023-04-10T03:03:39;100406.47;;;2.33;95.92
19624;BME280;9959;49.798;9.928;2023-04-10T03:06:08;100406.19;;;2.36;96.94
19624;BME280;9959;49.798;9.928;2023-04-10T03:08:35;100409.38;;;2.59;97.75
19624;BME280;9959;49.798;9.928;2023-04-10T03:11:02;100400.19;;;2.34;98.61
19624;BME280;9959;49.798;9.928;2023-04-10T03:13:29;100405.63;;;2.23;98.75
19624;BME280;9959;49.798;9.928;2023-04-10T03:15:57;100408.44;;;2.12;98.77
19624;BME280;9959;49.798;9.928;2023-04-10T03:18:24;100403.13;;;2.12;99.26
19624;BME280;9959;49.798;9.928;2023-04-10T03:20:51;100399.22;;;2.16;99.34
19624;BME280;9959;49.798;9.928;2023-04-10T03:23:18;100396.56;;;2.16;98.36
19624;BME280;9959;49.798;9.928;2023-04-10T03:25:48;100389.69;;;2.14;100.00
19624;BME280;9959;49.798;9.928;2023-04-10T03:28:16;100396.41;;;2.18;100.00
19624;BME280;9959;49.798;9.928;2023-04-10T03:30:44;100393.03;;;1.96;100.00
19624;BME280;9959;49.798;9.928;2023-04-10T03:33:11;100397.22;;;1.89;100.00
19624;BME280;9959;49.798;9.928;2023-04-10T03:35:38;100398.19;;;1.98;100.00
19624;BME280;9959;49.798;9.928;2023-04-10T03:38:04;100396.66;;;2.05;100.00
19624;BME280;9959;49.798;9.928;2023-04-10T03:40:31;100388.44;;;2.18;99.07
19624;BME280;9959;49.798;9.928;2023-04-10T03:42:59;100389.41;;;2.07;98.65
19624;BME280;9959;49.798;9.928;2023-04-10T03:45:26;100382.97;;;2.00;100.00
19624;BME280;9959;49.798;9.928;2023-04-10T03:47:53;100375.69;;;2.21;100.00
19624;BME280;9959;49.798;9.928;2023-04-10T03:50:20;100385.06;;;1.87;99.48
19624;BME280;9959;49.798;9.928;2023-04-10T03:52:47;100379.03;;;2.04;100.00
19624;BME280;9959;49.798;9.928;2023-04-10T03:55:15;100389.50;;;1.77;100.00
19624;BME280;9959;49.798;9.928;2023-04-10T03:57:46;100386.59;;;1.89;100.00
19624;BME280;9959;49.798;9.928;2023-04-10T04:00:14;100384.66;;;2.11;99.77
19624;BME280;9959;49.798;9.928;2023-04-10T04:02:42;100386.88;;;1.86;100.00
19624;BME280;9959;49.798;9.928;2023-04-10T04:05:09;100393.19;;;2.14;98.80
19624;BME280;9959;49.798;9.928;2023-04-10T04:07:36;100393.88;;;1.87;97.04
19624;BME280;9959;49.798;9.928;2023-04-10T04:10:03;100400.84;;;1.79;98.78
19624;BME280;9959;49.798;9.928;2023-04-10T04:12:30;100402.22;;;1.63;100.00
19624;BME280;9959;49.798;9.928;2023-04-10T04:14:57;100400.25;;;1.75;100.00
19624;BME280;9959;49.798;9.928;2023-04-10T04:17:24;100400.94;;;1.67;100.00
19624;BME280;9959;49.798;9.928;2023-04-10T04:19:51;100393.03;;;1.87;100.00
19624;BME280;9959;49.798;9.928;2023-04-10T04:22:19;100386.03;;;1.86;100.00
19624;BME280;9959;49.798;9.928;2023-04-10T04:24:46;100392.97;;;1.58;100.00
19624;BME280;9959;49.798;9.928;2023-04-10T04:27:13;100395.44;;;1.50;100.00
19624;BME280;9959;49.798;9.928;2023-04-10T04:29:40;100393.19;;;1.45;100.00
19624;BME280;9959;49.798;9.928;2023-04-10T04:32:07;100394.16;;;1.44;100.00
19624;BME280;9959;49.798;9.928;2023-04-10T04:34:34;100405.53;;;1.56;100.00
19624;BME280;9959;49.798;9.928;2023-04-10T04:37:01;100396.66;;;1.86;100.00
19624;BME280;9959;49.798;9.928;2023-04-10T04:39:28;100401.38;;;1.73;100.00
19624;BME280;9959;49.798;9.928;2023-04-10T04:41:55;100394.66;;;1.68;100.00
19624;BME280;9959;49.798;9.928;2023-04-10T04:44:22;100400.81;;;1.59;100.00
19624;BME280;9959;49.798;9.928;2023-04-10T04:46:49;100397.44;;;1.57;100.00
19624;BME280;9959;49.798;9.928;2023-04-10T04:49:15;100403.47;;;1.59;100.00
19624;BME280;9959;49.798;9.928;2023-04-10T04:51:42;100406.41;;;1.76;100.00
19624;BME280;9959;49.798;9.928;2023-04-10T04:54:09;100404.75;;;1.84;100.00
19624;BME280;9959;49.798;9.928;2023-04-10T04:56:36;100399.88;;;1.89;100.00
19624;BME280;9959;49.798;9.928;2023-04-10T04:59:03;100407.56;;;1.83;100.00
19624;BME280;9959;49.798;9.928;2023-04-10T05:01:30;100395.09;;;1.74;100.00
19624;BME280;9959;49.798;9.928;2023-04-10T05:03:57;100389.97;;;1.91;100.00
19624;BME280;9959;49.798;9.928;2023-04-10T05:06:24;100387.28;;;1.82;98.95
19624;BME280;9959;49.798;9.928;2023-04-10T05:08:52;100388.16;;;2.11;98.02
19624;BME280;9959;49.798;9.928;2023-04-10T05:11:19;100397.25;;;2.37;96.27
19624;BME280;9959;49.798;9.928;2023-04-10T05:13:46;100391.78;;;2.29;96.56
19624;BME280;9959;49.798;9.928;2023-04-10T05:16:12;100398.06;;;1.99;98.47
19624;BME280;9959;49.798;9.928;2023-04-10T05:18:40;100400.72;;;1.90;98.62
19624;BME280;9959;49.798;9.928;2023-04-10T05:21:07;100396.50;;;1.97;98.38
19624;BME280;9959;49.798;9.928;2023-04-10T05:23:33;100396.25;;;2.19;97.07
19624;BME280;9959;49.798;9.928;2023-04-10T05:26:00;100397.94;;;2.20;96.04
19624;BME280;9959;49.798;9.928;2023-04-10T05:28:27;100394.16;;;2.23;95.80
19624;BME280;9959;49.798;9.928;2023-04-10T05:30:54;100400.03;;;2.36;95.04
19624;BME280;9959;49.798;9.928;2023-04-10T05:33:21;100399.19;;;2.35;94.75
19624;BME280;9959;49.798;9.928;2023-04-10T05:35:48;100402.69;;;2.46;95.07
19624;BME280;9959;49.798;9.928;2023-04-10T05:38:15;100403.50;;;2.56;94.65
19624;BME280;9959;49.798;9.928;2023-04-10T05:40:44;100394.97;;;2.62;92.83
19624;BME280;9959;49.798;9.928;2023-04-10T05:43:11;100399.44;;;2.71;93.05
19624;BME280;9959;49.798;9.928;2023-04-10T05:45:38;100406.03;;;2.57;93.86
19624;BME280;9959;49.798;9.928;2023-04-10T05:48:06;100403.94;;;2.61;93.37
19624;BME280;9959;49.798;9.928;2023-04-10T05:50:34;100401.41;;;2.69;94.08
19624;BME280;9959;49.798;9.928;2023-04-10T05:53:01;100407.50;;;2.89;93.27
19624;BME280;9959;49.798;9.928;2023-04-10T05:55:30;100393.78;;;2.93;92.01
19624;BME280;9959;49.798;9.928;2023-04-10T05:57:58;100398.19;;;3.12;91.55
19624;BME280;9959;49.798;9.928;2023-04-10T06:00:25;100395.38;;;3.14;90.82
19624;BME280;9959;49.798;9.928;2023-04-10T06:02:52;100391.66;;;3.34;89.59
19624;BME280;9959;49.798;9.928;2023-04-10T06:05:19;100397.25;;;3.40;89.08
19624;BME280;9959;49.798;9.928;2023-04-10T06:07:46;100393.78;;;3.58;88.17
19624;BME280;9959;49.798;9.928;2023-04-10T06:10:12;100398.19;;;3.77;86.84
19624;BME280;9959;49.798;9.928;2023-04-10T06:12:39;100398.38;;;3.83;86.35
19624;BME280;9959;49.798;9.928;2023-04-10T06:15:07;100390.56;;;3.82;86.80
19624;BME280;9959;49.798;9.928;2023-04-10T06:17:34;100394.69;;;3.94;86.14
19624;BME280;9959;49.798;9.928;2023-04-10T06:20:07;100390.44;;;4.01;85.70
19624;BME280;9959;49.798;9.928;2023-04-10T06:22:34;100390.03;;;4.14;85.91
19624;BME280;9959;49.798;9.928;2023-04-10T06:25:01;100384.25;;;4.36;84.79
19624;BME280;9959;49.798;9.928;2023-04-10T06:27:28;100388.97;;;4.60;83.57
19624;BME280;9959;49.798;9.928;2023-04-10T06:29:55;100384.91;;;4.56;83.62
19624;BME280;9959;49.798;9.928;2023-04-10T06:32:23;100382.41;;;4.80;83.12
19624;BME280;9959;49.798;9.928;2023-04-10T06:34:50;100383.47;;;4.87;82.97
19624;BME280;9959;49.798;9.928;2023-04-10T06:37:17;100381.66;;;4.88;82.49
19624;BME280;9959;49.798;9.928;2023-04-10T06:39:44;100378.66;;;4.91;82.49
19624;BME280;9959;49.798;9.928;2023-04-10T06:42:11;100377.22;;;5.04;81.96
19624;BME280;9959;49.798;9.928;2023-04-10T06:44:38;100382.69;;;5.29;80.98
19624;BME280;9959;49.798;9.928;2023-04-10T06:47:04;100379.91;;;5.38;80.41
19624;BME280;9959;49.798;9.928;2023-04-10T06:49:32;100378.59;;;5.42;79.83
19624;BME280;9959;49.798;9.928;2023-04-10T06:51:59;100380.50;;;5.66;79.72
19624;BME280;9959;49.798;9.928;2023-04-10T06:54:25;100384.53;;;5.78;78.93
19624;BME280;9959;49.798;9.928;2023-04-10T06:56:52;100380.19;;;5.69;80.31
19624;BME280;9959;49.798;9.928;2023-04-10T06:59:24;100380.13;;;5.95;79.72
19624;BME280;9959;49.798;9.928;2023-04-10T07:01:51;100380.97;;;6.12;79.17
19624;BME280;9959;49.798;9.928;2023-04-10T07:04:18;100379.84;;;6.23;78.55
19624;BME280;9959;49.798;9.928;2023-04-10T07:06:44;100385.50;;;6.36;78.33
19624;BME280;9959;49.798;9.928;2023-04-10T07:09:12;100378.16;;;6.62;77.21
19624;BME280;9959;49.798;9.928;2023-04-10T07:23:46;100372.41;;;7.53;73.76
19624;BME280;9959;49.798;9.928;2023-04-10T07:26:13;100369.78;;;7.99;72.54
19624;BME280;9959;49.798;9.928;2023-04-10T07:28:40;100370.44;;;7.78;72.63
19624;BME280;9959;49.798;9.928;2023-04-10T07:31:08;100365.41;;;8.29;71.33
19624;BME280;9959;49.798;9.928;2023-04-10T07:33:37;100361.53;;;8.31;70.12
19624;BME280;9959;49.798;9.928;2023-04-10T07:36:04;100358.28;;;8.96;68.26
19624;BME280;9959;49.798;9.928;2023-04-10T07:38:31;100361.72;;;8.90;68.26
19624;BME280;9959;49.798;9.928;2023-04-10T07:40:59;100357.81;;;9.07;67.46
19624;BME280;9959;49.798;9.928;2023-04-10T07:43:26;100361.53;;;9.06;67.50
19624;BME280;9959;49.798;9.928;2023-04-10T07:45:54;100359.69;;;9.51;66.20
19624;BME280;9959;49.798;9.928;2023-04-10T07:48:21;100365.56;;;9.61;65.32
19624;BME280;9959;49.798;9.928;2023-04-10T07:50:48;100367.25;;;9.62;65.73
19624;BME280;9959;49.798;9.928;2023-04-10T07:53:15;100357.97;;;9.65;66.29
19624;BME280;9959;49.798;9.928;2023-04-10T07:55:44;100352.69;;;10.29;63.65
19624;BME280;9959;49.798;9.928;2023-04-10T07:58:11;100350.06;;;10.57;62.09
19624;BME280;9959;49.798;9.928;2023-04-10T08:00:37;100340.66;;;10.25;63.03
19624;BME280;9959;49.798;9.928;2023-04-10T08:03:04;100339.66;;;10.54;61.31
19624;BME280;9959;49.798;9.928;2023-04-10T08:05:33;100343.97;;;10.27;62.83
19624;BME280;9959;49.798;9.928;2023-04-10T08:07:59;100337.50;;;10.21;63.32
19624;BME280;9959;49.798;9.928;2023-04-10T08:10:26;100327.84;;;10.55;62.46
19624;BME280;9959;49.798;9.928;2023-04-10T08:12:56;100324.00;;;10.64;61.81
19624;BME280;9959;49.798;9.928;2023-04-10T08:15:23;100329.88;;;10.74;61.16
19624;BME280;9959;49.798;9.928;2023-04-10T08:17:50;100330.81;;;10.88;60.87
19624;BME280;9959;49.798;9.928;2023-04-10T08:20:17;100336.63;;;11.26;59.47
19624;BME280;9959;49.798;9.928;2023-04-10T08:22:44;100334.75;;;11.26;58.82
19624;BME280;9959;49.798;9.928;2023-04-10T08:25:11;100330.66;;;11.37;58.48
19624;BME280;9959;49.798;9.928;2023-04-10T08:27:38;100323.38;;;11.78;57.85
19624;BME280;9959;49.798;9.928;2023-04-10T08:30:05;100326.59;;;12.15;56.39
19624;BME280;9959;49.798;9.928;2023-04-10T08:32:32;100316.22;;;12.38;55.80
19624;BME280;9959;49.798;9.928;2023-04-10T08:34:59;100317.81;;;11.86;56.42
19624;BME280;9959;49.798;9.928;2023-04-10T08:37:26;100315.63;;;12.56;54.31
19624;BME280;9959;49.798;9.928;2023-04-10T08:39:53;100317.47;;;12.29;54.93
19624;BME280;9959;49.798;9.928;2023-04-10T08:42:20;100313.53;;;12.25;54.85
19624;BME280;9959;49.798;9.928;2023-04-10T08:44:48;100300.03;;;12.51;54.06
19624;BME280;9959;49.798;9.928;2023-04-10T08:47:19;100302.28;;;12.68;52.98
19624;BME280;9959;49.798;9.928;2023-04-10T08:49:53;100291.50;;;12.28;54.27
19624;BME280;9959;49.798;9.928;2023-04-10T08:52:23;100293.91;;;13.02;52.00
19624;BME280;9959;49.798;9.928;2023-04-10T08:54:53;100296.47;;;12.64;52.96
19624;BME280;9959;49.798;9.928;2023-04-10T08:57:22;100297.66;;;13.08;51.57
19624;BME280;9959;49.798;9.928;2023-04-10T08:59:50;100289.63;;;13.46;50.47
19624;BME280;9959;49.798;9.928;2023-04-10T09:02:20;100283.03;;;13.29;50.82
19624;BME280;9959;49.798;9.928;2023-04-10T09:04:50;100280.25;;;13.86;49.47
19624;BME280;9959;49.798;9.928;2023-04-10T09:07:17;100282.34;;;13.84;49.53
19624;BME280;9959;49.798;9.928;2023-04-10T09:09:44;100282.22;;;13.21;50.19
19624;BME280;9959;49.798;9.928;2023-04-10T09:12:12;100277.19;;;13.76;49.79
19624;BME280;9959;49.798;9.928;2023-04-10T09:14:40;100266.31;;;13.83;49.75
19624;BME280;9959;49.798;9.928;2023-04-10T09:17:12;100268.81;;;14.16;48.94
19624;BME280;9959;49.798;9.928;2023-04-10T09:19:40;100262.19;;;14.37;47.89
19624;BME280;9959;49.798;9.928;2023-04-10T09:22:07;100259.69;;;15.03;45.43
19624;BME280;9959;49.798;9.928;2023-04-10T09:24:36;100254.66;;;14.64;46.83
19624;BME280;9959;49.798;9.928;2023-04-10T09:27:05;100250.19;;;14.94;45.70
19624;BME280;9959;49.798;9.928;2023-04-10T09:29:40;100246.63;;;14.94;45.28
19624;BME280;9959;49.798;9.928;2023-04-10T09:32:07;100244.09;;;14.99;44.60
19624;BME280;9959;49.798;9.928;2023-04-10T09:34:51;100244.84;;;14.44;45.48
19624;BME280;9959;49.798;9.928;2023-04-10T09:37:18;100240.63;;;14.48;44.93
19624;BME280;9959;49.798;9.928;2023-04-10T09:39:48;100238.13;;;14.72;44.38
19624;BME280;9959;49.798;9.928;2023-04-10T09:42:14;100233.25;;;14.55;44.28
19624;BME280;9959;49.798;9.928;2023-04-10T09:44:42;100229.69;;;14.98;43.64
19624;BME280;9959;49.798;9.928;2023-04-10T09:47:21;100221.72;;;15.81;42.59
19624;BME280;9959;49.798;9.928;2023-04-10T09:49:53;100216.75;;;15.78;42.27
19624;BME280;9959;49.798;9.928;2023-04-10T09:52:23;100224.00;;;14.81;44.11
19624;BME280;9959;49.798;9.928;2023-04-10T09:54:54;100219.84;;;15.34;43.73
19624;BME280;9959;49.798;9.928;2023-04-10T09:57:23;100206.94;;;14.99;43.76
19624;BME280;9959;49.798;9.928;2023-04-10T09:59:55;100207.50;;;15.68;42.84
19624;BME280;9959;49.798;9.928;2023-04-10T10:02:24;100203.34;;;15.65;42.47
19624;BME280;9959;49.798;9.928;2023-04-10T10:04:52;100181.50;;;16.25;42.07
19624;BME280;9959;49.798;9.928;2023-04-10T10:07:21;100189.50;;;15.37;43.51
19624;BME280;9959;49.798;9.928;2023-04-10T10:09:51;100181.44;;;15.48;43.08
19624;BME280;9959;49.798;9.928;2023-04-10T10:12:29;100184.94;;;15.67;42.83
19624;BME280;9959;49.798;9.928;2023-04-10T10:15:04;100168.34;;;15.99;41.84
19624;BME280;9959;49.798;9.928;2023-04-10T10:17:42;100163.06;;;16.27;41.54
19624;BME280;9959;49.798;9.928;2023-04-10T10:20:12;100154.63;;;15.94;42.51
19624;BME280;9959;49.798;9.928;2023-04-10T10:22:39;100159.25;;;16.51;41.30
19624;BME280;9959;49.798;9.928;2023-04-10T10:25:08;100161.28;;;16.09;41.05
19624;BME280;9959;49.798;9.928;2023-04-10T10:27:38;100147.31;;;16.52;39.76
19624;BME280;9959;49.798;9.928;2023-04-10T10:30:08;100143.69;;;16.12;40.67
19624;BME280;9959;49.798;9.928;2023-04-10T10:32:57;100139.16;;;16.29;40.79
19624;BME280;9959;49.798;9.928;2023-04-10T10:35:25;100127.56;;;15.87;41.18
19624;BME280;9959;49.798;9.928;2023-04-10T10:37:57;100131.09;;;16.57;40.70
19624;BME280;9959;49.798;9.928;2023-04-10T10:40:27;100116.44;;;16.58;40.13
19624;BME280;9959;49.798;9.928;2023-04-10T10:46:03;100106.41;;;16.99;39.87
19624;BME280;9959;49.798;9.928;2023-04-10T10:48:32;100110.19;;;16.46;40.21
19624;BME280;9959;49.798;9.928;2023-04-10T10:51:00;100115.53;;;16.65;39.68
19624;BME280;9959;49.798;9.928;2023-04-10T10:53:43;100108.13;;;16.77;36.85
19624;BME280;9959;49.798;9.928;2023-04-10T10:58:54;100109.22;;;17.04;36.90
19624;BME280;9959;49.798;9.928;2023-04-10T11:01:23;100112.38;;;17.58;35.76
19624;BME280;9959;49.798;9.928;2023-04-10T11:03:50;100096.44;;;17.33;35.98
19624;BME280;9959;49.798;9.928;2023-04-10T11:06:21;100084.94;;;17.93;35.38
19624;BME280;9959;49.798;9.928;2023-04-10T11:09:05;100098.91;;;17.51;36.11
19624;BME280;9959;49.798;9.928;2023-04-10T11:11:58;100084.47;;;17.06;37.09
19624;BME280;9959;49.798;9.928;2023-04-10T11:14:25;100082.91;;;17.55;36.07
19624;BME280;9959;49.798;9.928;2023-04-10T11:16:52;100087.59;;;17.71;36.97
19624;BME280;9959;49.798;9.928;2023-04-10T11:19:19;100079.88;;;17.06;36.80
19624;BME280;9959;49.798;9.928;2023-04-10T11:22:03;100073.50;;;17.46;36.21
19624;BME280;9959;49.798;9.928;2023-04-10T11:25:03;100074.66;;;16.76;37.10
19624;BME280;9959;49.798;9.928;2023-04-10T11:27:40;100063.94;;;17.93;35.80
19624;BME280;9959;49.798;9.928;2023-04-10T11:30:33;100064.50;;;17.62;35.41
19624;BME280;9959;49.798;9.928;2023-04-10T11:33:01;100053.47;;;18.24;35.35
19624;BME280;9959;49.798;9.928;2023-04-10T11:35:29;100052.06;;;17.66;35.23
19624;BME280;9959;49.798;9.928;2023-04-10T11:38:10;100051.47;;;18.80;34.16
19624;BME280;9959;49.798;9.928;2023-04-10T11:40:52;100041.50;;;18.47;33.97
19624;BME280;9959;49.798;9.928;2023-04-10T11:43:20;100044.59;;;18.99;33.93
19624;BME280;9959;49.798;9.928;2023-04-10T11:45:47;100044.22;;;18.47;33.99
19624;BME280;9959;49.798;9.928;2023-04-10T11:48:14;100024.97;;;17.93;34.87
19624;BME280;9959;49.798;9.928;2023-04-10T11:50:43;100033.47;;;19.70;32.89
19624;BME280;9959;49.798;9.928;2023-04-10T11:53:20;100032.03;;;19.94;32.46
19624;BME280;9959;49.798;9.928;2023-04-10T11:55:49;100035.59;;;19.31;34.16
19624;BME280;9959;49.798;9.928;2023-04-10T11:58:28;100025.31;;;18.40;34.75
19624;BME280;9959;49.798;9.928;2023-04-10T12:00:56;100013.16;;;19.55;33.98
19624;BME280;9959;49.798;9.928;2023-04-10T12:03:40;100012.78;;;19.47;33.38
19624;BME280;9959;49.798;9.928;2023-04-10T12:06:09;100002.94;;;19.78;33.02
19624;BME280;9959;49.798;9.928;2023-04-10T12:08:39;100006.53;;;19.19;34.42
19624;BME280;9959;49.798;9.928;2023-04-10T12:11:09;100003.25;;;18.64;34.42
19624;BME280;9959;49.798;9.928;2023-04-10T12:13:37;99993.28;;;19.33;33.66
19624;BME280;9959;49.798;9.928;2023-04-10T12:16:06;99998.13;;;20.00;32.70
19624;BME280;9959;49.798;9.928;2023-04-10T12:18:33;100002.06;;;20.14;31.82
19624;BME280;9959;49.798;9.928;2023-04-10T12:21:00;99988.81;;;20.43;31.96
19624;BME280;9959;49.798;9.928;2023-04-10T12:23:28;99982.59;;;20.06;31.58
19624;BME280;9959;49.798;9.928;2023-04-10T12:26:10;99980.88;;;19.89;31.94
19624;BME280;9959;49.798;9.928;2023-04-10T12:28:39;99966.94;;;20.48;30.47
19624;BME280;9959;49.798;9.928;2023-04-10T12:31:07;99971.47;;;20.33;31.19
19624;BME280;9959;49.798;9.928;2023-04-10T12:33:34;99964.47;;;20.57;30.53
19624;BME280;9959;49.798;9.928;2023-04-10T12:36:01;99949.19;;;20.71;30.13
19624;BME280;9959;49.798;9.928;2023-04-10T12:38:41;99938.00;;;21.44;30.19
19624;BME280;9959;49.798;9.928;2023-04-10T12:41:10;99934.66;;;20.60;30.25
19624;BME280;9959;49.798;9.928;2023-04-10T12:43:41;99922.47;;;20.16;30.67
19624;BME280;9959;49.798;9.928;2023-04-10T12:46:09;99918.81;;;21.08;29.72
19624;BME280;9959;49.798;9.928;2023-04-10T12:48:36;99917.97;;;20.82;29.18
19624;BME280;9959;49.798;9.928;2023-04-10T12:51:03;99918.13;;;22.03;28.42
19624;BME280;9959;49.798;9.928;2023-04-10T12:53:30;99918.53;;;20.74;29.54
19624;BME280;9959;49.798;9.928;2023-04-10T12:58:27;99909.50;;;21.45;29.51
19624;BME280;9959;49.798;9.928;2023-04-10T13:00:54;99910.69;;;22.62;27.62
19624;BME280;9959;49.798;9.928;2023-04-10T13:03:22;99909.06;;;21.97;28.53
19624;BME280;9959;49.798;9.928;2023-04-10T13:05:49;99907.31;;;21.42;28.28
19624;BME280;9959;49.798;9.928;2023-04-10T13:08:17;99893.63;;;22.21;28.37
19624;BME280;9959;49.798;9.928;2023-04-10T13:10:44;99893.59;;;21.57;28.16
19624;BME280;9959;49.798;9.928;2023-04-10T13:13:12;99890.44;;;21.89;26.62
19624;BME280;9959;49.798;9.928;2023-04-10T13:15:39;99875.84;;;22.58;26.07
19624;BME280;9959;49.798;9.928;2023-04-10T13:18:06;99870.38;;;22.09;26.50
19624;BME280;9959;49.798;9.928;2023-04-10T13:20:34;99861.81;;;21.10;27.80
19624;BME280;9959;49.798;9.928;2023-04-10T13:23:03;99869.50;;;20.88;28.70
19624;BME280;9959;49.798;9.928;2023-04-10T13:25:31;99868.97;;;21.21;28.01
19624;BME280;9959;49.798;9.928;2023-04-10T13:28:00;99864.47;;;21.66;27.13
19624;BME280;9959;49.798;9.928;2023-04-10T13:30:28;99863.50;;;20.91;27.61
19624;BME280;9959;49.798;9.928;2023-04-10T13:32:54;99871.19;;;20.79;27.59
19624;BME280;9959;49.798;9.928;2023-04-10T13:35:21;99860.09;;;20.18;27.08
19624;BME280;9959;49.798;9.928;2023-04-10T13:37:48;99863.63;;;19.51;27.59
19624;BME280;9959;49.798;9.928;2023-04-10T13:40:19;99851.31;;;20.11;28.31
19624;BME280;9959;49.798;9.928;2023-04-10T13:42:47;99848.09;;;20.24;27.64
19624;BME280;9959;49.798;9.928;2023-04-10T13:45:14;99847.34;;;19.76;27.90
19624;BME280;9959;49.798;9.928;2023-04-10T13:47:42;99851.97;;;20.43;26.70